createdAt,value
2022-10-11T00:00:22.427Z,22.44
2022-10-11T00:01:16.016Z,22.46
2022-10-11T00:02:09.481Z,22.38
2022-10-11T00:03:03.011Z,22.40
2022-10-11T00:03:56.546Z,22.43
2022-10-11T00:04:40.201Z,22.44
2022-10-11T00:05:33.727Z,22.46
2022-10-11T00:06:27.259Z,22.40
2022-10-11T00:07:20.784Z,22.46
2022-10-11T00:08:14.329Z,22.52
2022-10-11T00:09:07.868Z,22.41
2022-10-11T00:10:01.382Z,22.48
2022-10-11T00:10:54.906Z,22.41
2022-10-11T00:11:48.447Z,22.40
2022-10-11T00:12:41.971Z,22.46
2022-10-11T00:13:35.499Z,22.44
2022-10-11T00:14:29.025Z,22.44
2022-10-11T00:15:22.578Z,22.44
2022-10-11T00:16:16.099Z,22.51
2022-10-11T00:17:09.620Z,22.44
2022-10-11T00:18:05.425Z,22.40
2022-10-11T00:18:56.688Z,22.43
2022-10-11T00:19:50.213Z,22.43
2022-10-11T00:20:43.738Z,22.37
2022-10-11T00:21:37.271Z,22.40
2022-10-11T00:22:30.797Z,22.40
2022-10-11T00:23:24.322Z,22.46
2022-10-11T00:24:17.871Z,22.48
2022-10-11T00:25:11.390Z,22.46
2022-10-11T00:26:05.181Z,22.43
2022-10-11T00:26:58.459Z,22.41
2022-10-11T00:27:52.000Z,22.43
2022-10-11T00:28:35.739Z,22.43
2022-10-11T00:29:29.183Z,22.46
2022-10-11T00:30:22.710Z,22.36
2022-10-11T00:31:16.238Z,22.46
2022-10-11T00:32:10.349Z,22.41
2022-10-11T00:33:03.884Z,22.40
2022-10-11T00:33:57.413Z,22.44
2022-10-11T00:34:50.937Z,22.46
2022-10-11T00:35:44.462Z,22.46
2022-10-11T00:36:37.998Z,22.38
2022-10-11T00:37:31.531Z,22.41
2022-10-11T00:38:25.065Z,22.44
2022-10-11T00:39:18.590Z,22.44
2022-10-11T00:40:02.259Z,22.43
2022-10-11T00:40:45.890Z,22.41
2022-10-11T00:41:39.420Z,22.44
2022-10-11T00:42:32.944Z,22.48
2022-10-11T00:43:26.486Z,22.37
2022-10-11T00:44:20.012Z,22.43
2022-10-11T00:45:03.670Z,22.44
2022-10-11T00:45:57.191Z,22.41
2022-10-11T00:46:54.995Z,22.43
2022-10-11T00:47:44.246Z,22.40
2022-10-11T00:48:37.782Z,22.48
2022-10-11T00:49:31.324Z,22.40
2022-10-11T00:50:24.842Z,22.46
2022-10-11T00:51:08.894Z,22.43
2022-10-11T00:52:12.285Z,22.44
2022-10-11T00:52:55.941Z,22.40
2022-10-11T00:53:49.469Z,22.34
2022-10-11T00:54:43.012Z,22.44
2022-10-11T00:55:36.556Z,22.36
2022-10-11T00:56:30.058Z,22.46
2022-10-11T00:57:23.585Z,22.40
2022-10-11T00:58:17.115Z,22.36
2022-10-11T00:59:10.660Z,22.31
2022-10-11T01:00:04.187Z,22.44
2022-10-11T01:00:57.983Z,22.43
2022-10-11T01:01:51.357Z,22.34
2022-10-11T01:02:44.793Z,22.30
2022-10-11T01:03:38.315Z,22.33
2022-10-11T01:04:31.851Z,22.33
2022-10-11T01:05:29.092Z,22.31
2022-10-11T01:06:09.203Z,22.33
2022-10-11T01:07:02.558Z,22.41
2022-10-11T01:07:56.085Z,22.46
2022-10-11T01:08:49.614Z,22.34
2022-10-11T01:09:33.267Z,22.31
2022-10-11T01:10:26.792Z,22.38
2022-10-11T01:11:10.482Z,22.31
2022-10-11T01:12:03.992Z,22.33
2022-10-11T01:12:57.509Z,22.25
2022-10-11T01:13:51.035Z,22.41
2022-10-11T01:14:44.563Z,22.27
2022-10-11T01:15:38.087Z,22.41
2022-10-11T01:16:31.618Z,22.41
2022-10-11T01:17:25.150Z,22.44
2022-10-11T01:18:18.693Z,22.37
2022-10-11T01:19:12.210Z,22.44
2022-10-11T01:20:05.733Z,22.37
2022-10-11T01:20:59.267Z,22.33
2022-10-11T01:21:52.811Z,22.38
2022-10-11T01:22:46.338Z,22.31
2022-10-11T01:23:29.993Z,22.31
2022-10-11T01:24:23.507Z,22.28
2022-10-11T01:25:17.028Z,22.31
2022-10-11T01:26:10.556Z,22.44
2022-10-11T01:27:04.093Z,22.37
2022-10-11T01:27:57.593Z,22.31
2022-10-11T01:28:51.207Z,22.31
2022-10-11T01:29:44.655Z,22.31
2022-10-11T01:30:38.181Z,22.41
2022-10-11T01:31:31.716Z,22.33
2022-10-11T01:32:25.237Z,22.43
2022-10-11T01:33:18.776Z,22.37
2022-10-11T01:34:12.294Z,22.34
2022-10-11T01:35:05.832Z,22.36
2022-10-11T01:35:59.372Z,22.34
2022-10-11T01:36:52.916Z,22.33
2022-10-11T01:37:46.441Z,22.38
2022-10-11T01:38:30.120Z,22.34
2022-10-11T01:39:23.648Z,22.41
2022-10-11T01:40:17.182Z,22.36
2022-10-11T01:41:10.714Z,22.34
2022-10-11T01:42:04.233Z,22.31
2022-10-11T01:42:57.769Z,22.34
2022-10-11T01:43:51.298Z,22.36
2022-10-11T01:44:44.814Z,22.34
2022-10-11T01:45:38.330Z,22.38
2022-10-11T01:46:31.866Z,22.37
2022-10-11T01:47:15.522Z,22.34
2022-10-11T01:48:09.052Z,22.40
2022-10-11T01:49:02.580Z,22.38
2022-10-11T01:49:56.105Z,22.40
2022-10-11T01:50:49.635Z,22.40
2022-10-11T01:51:47.090Z,22.40
2022-10-11T01:52:36.682Z,22.30
2022-10-11T01:53:30.217Z,22.37
2022-10-11T01:54:23.754Z,22.30
2022-10-11T01:55:17.278Z,22.30
2022-10-11T01:56:10.801Z,22.40
2022-10-11T01:57:04.343Z,22.36
2022-10-11T01:57:57.872Z,22.37
2022-10-11T01:58:51.420Z,22.33
2022-10-11T01:59:35.069Z,22.38
2022-10-11T02:00:28.587Z,22.28
2022-10-11T02:01:22.148Z,22.33
2022-10-11T02:02:15.632Z,22.33
2022-10-11T02:03:09.155Z,22.30
2022-10-11T02:04:02.687Z,22.28
2022-10-11T02:04:56.227Z,22.33
2022-10-11T02:05:39.880Z,22.23
2022-10-11T02:06:33.400Z,22.34
2022-10-11T02:07:26.919Z,22.37
2022-10-11T02:08:20.447Z,22.33
2022-10-11T02:09:13.972Z,22.25
2022-10-11T02:10:07.503Z,22.30
2022-10-11T02:11:01.038Z,22.30
2022-10-11T02:11:54.573Z,22.33
2022-10-11T02:12:48.096Z,22.33
2022-10-11T02:13:41.613Z,22.34
2022-10-11T02:14:35.155Z,22.34
2022-10-11T02:15:28.658Z,22.25
2022-10-11T02:16:22.187Z,22.27
2022-10-11T02:17:15.713Z,22.30
2022-10-11T02:18:09.234Z,22.27
2022-10-11T02:19:02.767Z,22.28
2022-10-11T02:19:56.292Z,22.30
2022-10-11T02:20:49.826Z,22.33
2022-10-11T02:21:43.360Z,22.30
2022-10-11T02:22:36.901Z,22.34
2022-10-11T02:23:30.433Z,22.34
2022-10-11T02:24:14.085Z,22.28
2022-10-11T02:25:07.612Z,22.25
2022-10-11T02:26:11.409Z,22.31
2022-10-11T02:27:04.939Z,22.22
2022-10-11T02:27:58.459Z,22.27
2022-10-11T02:28:52.034Z,22.23
2022-10-11T02:29:45.530Z,22.23
2022-10-11T02:30:39.033Z,22.27
2022-10-11T02:31:32.568Z,22.34
2022-10-11T02:32:26.094Z,22.28
2022-10-11T02:33:19.630Z,22.27
2022-10-11T02:34:13.164Z,22.27
2022-10-11T02:35:06.687Z,22.27
2022-10-11T02:36:00.214Z,22.34
2022-10-11T02:36:53.737Z,22.25
2022-10-11T02:37:47.261Z,22.33
2022-10-11T02:38:30.923Z,22.34
2022-10-11T02:39:24.454Z,22.27
2022-10-11T02:40:17.991Z,22.28
2022-10-11T02:41:21.792Z,22.21
2022-10-11T02:42:15.329Z,22.30
2022-10-11T02:43:08.907Z,22.22
2022-10-11T02:44:02.399Z,22.21
2022-10-11T02:44:55.930Z,22.36
2022-10-11T02:45:49.450Z,22.33
2022-10-11T02:46:42.973Z,22.27
2022-10-11T02:47:36.494Z,22.31
2022-10-11T02:48:30.028Z,22.22
2022-10-11T02:49:23.582Z,22.33
2022-10-11T02:50:17.092Z,22.25
2022-10-11T02:51:10.612Z,22.34
2022-10-11T02:52:04.152Z,22.21
2022-10-11T02:52:57.687Z,22.28
2022-10-11T02:53:52.226Z,22.18
2022-10-11T02:54:45.750Z,22.23
2022-10-11T02:55:39.279Z,22.23
2022-10-11T02:56:43.075Z,22.21
2022-10-11T02:57:36.595Z,22.22
2022-10-11T02:58:30.130Z,22.23
2022-10-11T02:59:23.663Z,22.21
2022-10-11T03:00:17.211Z,22.23
2022-10-11T03:01:10.794Z,22.16
2022-10-11T03:02:04.358Z,22.21
2022-10-11T03:02:57.818Z,22.16
2022-10-11T03:03:51.358Z,22.28
2022-10-11T03:04:44.890Z,22.21
2022-10-11T03:05:38.412Z,22.22
2022-10-11T03:06:31.934Z,22.25
2022-10-11T03:07:25.467Z,22.27
2022-10-11T03:08:18.995Z,22.21
2022-10-11T03:09:12.515Z,22.22
2022-10-11T03:10:06.049Z,22.23
2022-10-11T03:10:49.706Z,22.19
2022-10-11T03:11:43.227Z,22.25
2022-10-11T03:12:36.765Z,22.19
2022-10-11T03:13:30.291Z,22.22
2022-10-11T03:14:23.808Z,22.19
2022-10-11T03:15:17.327Z,22.25
2022-10-11T03:16:11.225Z,22.22
2022-10-11T03:17:30.933Z,22.18
2022-10-11T03:17:57.894Z,22.22
2022-10-11T03:18:51.414Z,22.23
2022-10-11T03:19:44.947Z,22.15
2022-10-11T03:20:38.470Z,22.16
2022-10-11T03:21:32.017Z,22.18
2022-10-11T03:23:56.378Z,22.15
2022-10-11T03:24:49.907Z,22.21
2022-10-11T03:25:43.433Z,22.19
2022-10-11T03:26:36.959Z,22.22
2022-10-11T03:27:30.490Z,22.21
2022-10-11T03:28:24.058Z,22.23
2022-10-11T03:29:17.552Z,22.21
2022-10-11T03:30:12.550Z,22.22
2022-10-11T03:31:04.622Z,22.25
2022-10-11T03:31:58.177Z,22.18
2022-10-11T03:32:51.695Z,22.19
2022-10-11T03:33:45.227Z,22.13
2022-10-11T03:34:38.763Z,22.22
2022-10-11T03:35:32.285Z,22.16
2022-10-11T03:36:25.816Z,22.18
2022-10-11T03:37:19.360Z,22.21
2022-10-11T03:38:13.121Z,22.15
2022-10-11T03:39:06.428Z,22.23
2022-10-11T03:39:59.959Z,22.19
2022-10-11T03:40:53.488Z,22.19
2022-10-11T03:41:47.017Z,22.27
2022-10-11T03:42:41.038Z,22.21
2022-10-11T03:43:34.563Z,22.21
2022-10-11T03:44:28.120Z,22.21
2022-10-11T03:45:21.673Z,22.18
2022-10-11T03:46:15.219Z,22.21
2022-10-11T03:47:08.763Z,22.22
2022-10-11T03:48:02.277Z,22.25
2022-10-11T03:48:55.808Z,22.33
2022-10-11T03:49:49.342Z,22.31
2022-10-11T03:50:42.871Z,22.23
2022-10-11T03:51:36.428Z,22.28
2022-10-11T03:52:29.957Z,22.34
2022-10-11T03:53:23.484Z,22.33
2022-10-11T03:54:17.011Z,22.34
2022-10-11T03:55:10.536Z,22.36
2022-10-11T03:56:08.256Z,22.40
2022-10-11T03:56:57.597Z,22.48
2022-10-11T03:57:51.131Z,22.43
2022-10-11T03:58:44.672Z,22.46
2022-10-11T03:59:38.201Z,22.46
2022-10-11T04:00:31.738Z,22.43
2022-10-11T04:01:25.311Z,22.44
2022-10-11T04:02:18.813Z,22.38
2022-10-11T04:03:12.328Z,22.37
2022-10-11T04:04:05.858Z,22.49
2022-10-11T04:04:59.386Z,22.41
2022-10-11T04:05:52.913Z,22.41
2022-10-11T04:06:46.429Z,22.43
2022-10-11T04:07:39.960Z,22.38
2022-10-11T04:08:33.498Z,22.44
2022-10-11T04:09:27.036Z,22.48
2022-10-11T04:10:20.562Z,22.46
2022-10-11T04:11:14.100Z,22.44
2022-10-11T04:12:07.658Z,22.46
2022-10-11T04:13:01.179Z,22.38
2022-10-11T04:13:54.713Z,22.46
2022-10-11T04:14:48.238Z,22.44
2022-10-11T04:15:41.766Z,22.44
2022-10-11T04:16:35.300Z,22.38
2022-10-11T04:17:28.845Z,22.40
2022-10-11T04:18:22.368Z,22.46
2022-10-11T04:19:15.920Z,22.40
2022-10-11T04:20:09.455Z,22.13
2022-10-11T04:20:53.110Z,20.95
2022-10-11T04:21:46.647Z,19.70
2022-10-11T04:22:40.179Z,18.74
2022-10-11T04:23:33.712Z,18.23
2022-10-11T04:24:17.371Z,17.76
2022-10-11T04:25:10.903Z,17.25
2022-10-11T04:26:04.655Z,17.13
2022-10-11T04:26:57.964Z,16.94
2022-10-11T04:27:51.492Z,16.74
2022-10-11T04:28:45.068Z,16.32
2022-10-11T04:29:38.550Z,16.29
2022-10-11T04:30:32.085Z,16.26
2022-10-11T04:31:25.615Z,16.08
2022-10-11T04:32:19.142Z,17.14
2022-10-11T04:33:12.684Z,18.02
2022-10-11T04:34:06.204Z,18.60
2022-10-11T04:34:59.736Z,19.20
2022-10-11T04:35:53.264Z,19.41
2022-10-11T04:36:49.892Z,19.86
2022-10-11T04:37:30.451Z,20.05
2022-10-11T04:38:23.987Z,20.26
2022-10-11T04:39:17.542Z,20.50
2022-10-11T04:40:11.072Z,20.56
2022-10-11T04:41:04.599Z,20.71
2022-10-11T04:41:58.146Z,20.86
2022-10-11T04:42:51.659Z,20.90
2022-10-11T04:43:45.191Z,20.98
2022-10-11T04:44:38.718Z,20.97
2022-10-11T04:45:32.244Z,21.14
2022-10-11T04:46:25.773Z,21.10
2022-10-11T04:47:19.312Z,21.25
2022-10-11T04:48:12.831Z,21.29
2022-10-11T04:49:06.371Z,21.28
2022-10-11T04:49:59.901Z,21.43
2022-10-11T04:50:53.436Z,21.50
2022-10-11T04:51:46.974Z,21.45
2022-10-11T04:52:40.500Z,21.51
2022-10-11T04:53:34.024Z,21.53
2022-10-11T04:54:27.556Z,21.62
2022-10-11T04:55:21.075Z,21.62
2022-10-11T04:56:14.605Z,21.60
2022-10-11T04:57:08.135Z,21.60
2022-10-11T04:58:01.671Z,21.62
2022-10-11T04:58:55.210Z,21.77
2022-10-11T04:59:50.299Z,21.67
2022-10-11T05:00:42.258Z,21.77
2022-10-11T05:01:35.877Z,21.71
2022-10-11T05:02:29.413Z,21.78
2022-10-11T05:03:22.904Z,21.75
2022-10-11T05:04:06.552Z,21.74
2022-10-11T05:05:00.147Z,21.80
2022-10-11T05:05:43.763Z,21.75
2022-10-11T05:06:37.302Z,21.81
2022-10-11T05:07:30.835Z,21.80
2022-10-11T05:08:14.503Z,21.94
2022-10-11T05:09:08.023Z,21.80
2022-10-11T05:10:01.551Z,21.98
2022-10-11T05:10:55.079Z,21.88
2022-10-11T05:11:48.608Z,21.94
2022-10-11T05:12:42.126Z,21.91
2022-10-11T05:13:35.695Z,21.96
2022-10-11T05:14:29.261Z,21.97
2022-10-11T05:15:22.789Z,22.04
2022-10-11T05:16:16.779Z,22.01
2022-10-11T05:17:12.873Z,22.00
2022-10-11T05:18:08.418Z,22.01
2022-10-11T05:19:03.960Z,22.00
2022-10-11T05:19:59.500Z,22.01
2022-10-11T05:20:55.061Z,21.98
2022-10-11T05:21:50.599Z,22.04
2022-10-11T05:22:46.140Z,22.12
2022-10-11T05:23:41.671Z,22.13
2022-10-11T05:24:37.226Z,22.12
2022-10-11T05:25:32.768Z,22.15
2022-10-11T05:26:28.318Z,22.12
2022-10-11T05:27:23.845Z,22.16
2022-10-11T05:28:19.522Z,22.13
2022-10-11T05:29:14.939Z,22.12
2022-10-11T05:30:10.488Z,22.18
2022-10-11T05:31:06.023Z,22.15
2022-10-11T05:32:01.563Z,22.18
2022-10-11T05:32:57.133Z,22.22
2022-10-11T05:33:52.693Z,22.21
2022-10-11T05:34:48.238Z,22.23
2022-10-11T05:35:43.789Z,22.19
2022-10-11T05:36:39.341Z,22.19
2022-10-11T05:37:34.868Z,22.19
2022-10-11T05:38:31.081Z,22.25
2022-10-11T05:39:26.568Z,22.19
2022-10-11T05:40:22.119Z,22.21
2022-10-11T05:41:06.598Z,22.22
2022-10-11T05:42:04.564Z,22.21
2022-10-11T05:42:57.693Z,22.21
2022-10-11T05:43:53.230Z,22.18
2022-10-11T05:44:48.761Z,22.23
2022-10-11T05:45:44.318Z,22.18
2022-10-11T05:46:39.877Z,22.23
2022-10-11T05:47:35.415Z,22.22
2022-10-11T05:48:30.958Z,22.33
2022-10-11T05:49:26.500Z,22.36
2022-10-11T05:50:24.488Z,22.28
2022-10-11T05:51:17.617Z,22.30
2022-10-11T05:52:13.183Z,22.28
2022-10-11T05:53:08.713Z,22.28
2022-10-11T05:54:04.247Z,22.34
2022-10-11T05:54:59.815Z,22.34
2022-10-11T05:55:55.355Z,22.36
2022-10-11T05:56:50.892Z,22.37
2022-10-11T05:57:46.440Z,22.44
2022-10-11T05:58:41.978Z,22.33
2022-10-11T05:59:37.513Z,22.40
2022-10-11T06:00:32.182Z,22.38
2022-10-11T06:01:27.811Z,22.41
2022-10-11T06:02:23.276Z,22.40
2022-10-11T06:03:18.817Z,22.36
2022-10-11T06:04:14.370Z,22.38
2022-10-11T06:05:10.408Z,22.28
2022-10-11T06:06:06.346Z,22.28
2022-10-11T06:07:01.496Z,22.37
2022-10-11T06:07:57.552Z,22.41
2022-10-11T06:08:53.080Z,22.30
2022-10-11T06:09:48.628Z,22.30
2022-10-11T06:10:44.168Z,22.44
2022-10-11T06:11:39.705Z,22.23
2022-10-11T06:12:35.245Z,22.33
2022-10-11T06:13:30.786Z,22.33
2022-10-11T06:14:26.362Z,22.33
2022-10-11T06:15:21.904Z,22.34
2022-10-11T06:16:17.448Z,22.37
2022-10-11T06:17:02.113Z,22.34
2022-10-11T06:17:57.653Z,22.34
2022-10-11T06:18:53.196Z,22.31
2022-10-11T06:19:48.755Z,22.41
2022-10-11T06:20:44.296Z,22.44
2022-10-11T06:21:39.858Z,22.31
2022-10-11T06:22:35.389Z,22.28
2022-10-11T06:23:30.966Z,22.27
2022-10-11T06:24:26.504Z,22.33
2022-10-11T06:25:22.110Z,22.33
2022-10-11T06:26:17.663Z,22.36
2022-10-11T06:27:13.210Z,22.33
2022-10-11T06:28:08.896Z,22.38
2022-10-11T06:28:53.489Z,22.34
2022-10-11T06:29:48.962Z,22.36
2022-10-11T06:30:44.524Z,22.30
2022-10-11T06:31:40.081Z,22.40
2022-10-11T06:32:35.626Z,22.33
2022-10-11T06:33:31.164Z,22.34
2022-10-11T06:34:26.706Z,22.44
2022-10-11T06:35:22.270Z,22.28
2022-10-11T06:36:17.821Z,22.40
2022-10-11T06:37:13.362Z,22.34
2022-10-11T06:38:08.898Z,22.40
2022-10-11T06:38:53.595Z,22.30
2022-10-11T06:39:49.127Z,22.31
2022-10-11T06:40:44.671Z,22.30
2022-10-11T06:41:29.339Z,22.41
2022-10-11T06:42:24.896Z,22.40
2022-10-11T06:43:20.445Z,22.41
2022-10-11T06:44:16.022Z,22.40
2022-10-11T06:45:11.575Z,22.40
2022-10-11T06:46:07.602Z,22.44
2022-10-11T06:47:02.678Z,22.41
2022-10-11T06:47:58.227Z,22.43
2022-10-11T06:48:53.782Z,22.43
2022-10-11T06:49:49.386Z,22.40
2022-10-11T06:50:59.539Z,22.48
2022-10-11T06:51:29.587Z,22.44
2022-10-11T06:52:25.142Z,22.40
2022-10-11T06:53:20.681Z,22.48
2022-10-11T06:54:16.256Z,22.43
2022-10-11T06:55:11.755Z,22.48
2022-10-11T06:56:07.927Z,22.59
2022-10-11T06:57:02.845Z,22.55
2022-10-11T06:57:58.395Z,22.58
2022-10-11T06:58:53.934Z,22.51
2022-10-11T06:59:49.471Z,22.55
2022-10-11T07:00:45.035Z,22.56
2022-10-11T07:01:40.642Z,22.61
2022-10-11T07:02:36.094Z,22.56
2022-10-11T07:03:31.629Z,22.64
2022-10-11T07:04:27.169Z,22.67
2022-10-11T07:05:22.731Z,22.66
2022-10-11T07:06:18.273Z,22.70
2022-10-11T07:07:13.824Z,22.68
2022-10-11T07:08:09.352Z,22.70
2022-10-11T07:09:04.894Z,22.70
2022-10-11T07:10:01.957Z,22.68
2022-10-11T07:10:57.488Z,22.70
2022-10-11T07:11:53.034Z,22.68
2022-10-11T07:12:48.587Z,22.71
2022-10-11T07:13:44.120Z,22.73
2022-10-11T07:14:39.698Z,22.68
2022-10-11T07:15:35.253Z,22.74
2022-10-11T07:16:30.779Z,22.73
2022-10-11T07:17:26.322Z,22.66
2022-10-11T07:18:21.863Z,22.70
2022-10-11T07:19:17.417Z,22.76
2022-10-11T07:20:12.959Z,22.67
2022-10-11T07:21:08.494Z,22.78
2022-10-11T07:22:04.036Z,22.76
2022-10-11T07:22:59.627Z,22.76
2022-10-11T07:23:44.291Z,22.80
2022-10-11T07:24:39.861Z,22.80
2022-10-11T07:25:35.425Z,22.83
2022-10-11T07:26:36.781Z,22.85
2022-10-11T07:27:26.485Z,22.81
2022-10-11T07:28:22.071Z,22.89
2022-10-11T07:29:17.570Z,22.92
2022-10-11T07:30:13.102Z,22.83
2022-10-11T07:31:08.653Z,22.83
2022-10-11T07:32:04.187Z,22.83
2022-10-11T07:32:59.728Z,22.81
2022-10-11T07:33:55.269Z,22.86
2022-10-11T07:34:50.806Z,22.83
2022-10-11T07:35:48.538Z,22.81
2022-10-11T07:36:41.944Z,22.92
2022-10-11T07:37:37.484Z,22.91
2022-10-11T07:38:33.030Z,22.93
2022-10-11T07:39:28.570Z,22.89
2022-10-11T07:40:24.161Z,22.91
2022-10-11T07:41:19.695Z,22.95
2022-10-11T07:42:15.208Z,22.93
2022-10-11T07:43:11.355Z,23.01
2022-10-11T07:44:06.900Z,22.98
2022-10-11T07:45:02.450Z,22.89
2022-10-11T07:45:57.980Z,22.91
2022-10-11T07:46:53.517Z,22.95
2022-10-11T07:47:49.059Z,22.92
2022-10-11T07:48:44.600Z,23.01
2022-10-11T07:49:40.144Z,22.95
2022-10-11T07:50:35.688Z,22.99
2022-10-11T07:51:31.222Z,23.04
2022-10-11T07:52:26.772Z,23.01
2022-10-11T07:53:22.347Z,23.04
2022-10-11T07:54:17.852Z,22.96
2022-10-11T07:55:13.387Z,23.08
2022-10-11T07:56:09.353Z,23.04
2022-10-11T07:56:53.622Z,23.01
2022-10-11T07:57:49.153Z,23.01
2022-10-11T07:58:33.818Z,23.07
2022-10-11T07:59:29.359Z,22.99
2022-10-11T08:00:24.895Z,23.11
2022-10-11T08:01:20.496Z,23.06
2022-10-11T08:02:16.571Z,23.08
2022-10-11T08:03:12.127Z,23.08
2022-10-11T08:04:07.663Z,23.13
2022-10-11T08:05:03.257Z,23.10
2022-10-11T08:05:58.799Z,23.11
2022-10-11T08:06:54.354Z,23.17
2022-10-11T08:07:49.893Z,23.13
2022-10-11T08:08:45.439Z,23.10
2022-10-11T08:09:40.984Z,23.15
2022-10-11T08:10:36.539Z,23.17
2022-10-11T08:11:32.078Z,23.18
2022-10-11T08:12:27.634Z,23.10
2022-10-11T08:13:23.158Z,23.17
2022-10-11T08:14:18.701Z,23.23
2022-10-11T08:15:14.252Z,23.18
2022-10-11T08:16:09.788Z,23.18
2022-10-11T08:17:05.341Z,23.17
2022-10-11T08:18:00.892Z,23.15
2022-10-11T08:18:56.424Z,23.17
2022-10-11T08:19:51.949Z,23.18
2022-10-11T08:20:47.484Z,23.23
2022-10-11T08:21:43.027Z,23.23
2022-10-11T08:22:38.574Z,23.21
2022-10-11T08:23:34.110Z,23.25
2022-10-11T08:24:32.575Z,23.31
2022-10-11T08:25:25.694Z,23.23
2022-10-11T08:26:19.222Z,23.26
2022-10-11T08:27:12.734Z,23.25
2022-10-11T08:28:06.301Z,23.28
2022-10-11T08:29:00.137Z,23.29
2022-10-11T08:29:53.506Z,23.26
2022-10-11T08:30:48.060Z,23.29
2022-10-11T08:31:41.584Z,23.29
2022-10-11T08:32:37.151Z,23.42
2022-10-11T08:33:30.655Z,23.33
2022-10-11T08:34:24.173Z,23.41
2022-10-11T08:35:17.741Z,23.41
2022-10-11T08:36:11.547Z,23.37
2022-10-11T08:37:04.799Z,23.37
2022-10-11T08:37:58.323Z,23.34
2022-10-11T08:38:51.851Z,23.34
2022-10-11T08:39:45.367Z,23.28
2022-10-11T08:40:38.908Z,23.36
2022-10-11T08:41:32.444Z,23.36
2022-10-11T08:42:36.234Z,23.37
2022-10-11T08:43:29.796Z,23.37
2022-10-11T08:44:23.300Z,23.39
2022-10-11T08:45:16.830Z,23.42
2022-10-11T08:46:10.367Z,23.42
2022-10-11T08:47:03.904Z,23.34
2022-10-11T08:47:57.433Z,23.41
2022-10-11T08:48:50.957Z,23.49
2022-10-11T08:49:44.491Z,23.45
2022-10-11T08:50:38.022Z,23.37
2022-10-11T08:51:31.570Z,23.42
2022-10-11T08:52:25.102Z,23.42
2022-10-11T08:53:18.620Z,23.46
2022-10-11T08:54:12.144Z,23.46
2022-10-11T08:55:05.675Z,23.48
2022-10-11T08:55:59.196Z,23.45
2022-10-11T08:56:52.739Z,23.51
2022-10-11T08:57:46.265Z,23.45
2022-10-11T08:58:39.804Z,23.46
2022-10-11T08:59:33.324Z,23.54
2022-10-11T09:00:26.862Z,23.49
2022-10-11T09:01:20.475Z,23.54
2022-10-11T09:02:13.930Z,23.52
2022-10-11T09:03:09.254Z,23.54
2022-10-11T09:03:51.114Z,23.55
2022-10-11T09:04:44.639Z,23.51
2022-10-11T09:05:38.188Z,23.52
2022-10-11T09:06:31.722Z,23.56
2022-10-11T09:07:25.253Z,23.60
2022-10-11T09:08:18.784Z,23.54
2022-10-11T09:09:12.315Z,23.61
2022-10-11T09:10:05.854Z,23.61
2022-10-11T09:10:59.388Z,23.55
2022-10-11T09:11:53.932Z,23.63
2022-10-11T09:12:40.812Z,23.63
2022-10-11T09:13:31.137Z,23.64
2022-10-11T09:14:24.693Z,23.64
2022-10-11T09:15:18.223Z,23.66
2022-10-11T09:16:12.331Z,23.63
2022-10-11T09:17:05.861Z,23.69
2022-10-11T09:17:59.397Z,23.70
2022-10-11T09:18:43.067Z,23.61
2022-10-11T09:19:36.596Z,23.70
2022-10-11T09:20:30.131Z,23.71
2022-10-11T09:21:23.662Z,23.73
2022-10-11T09:22:17.192Z,23.64
2022-10-11T09:23:18.186Z,23.66
2022-10-11T09:24:11.732Z,23.71
2022-10-11T09:25:05.254Z,23.70
2022-10-11T09:25:58.786Z,23.39
2022-10-11T09:26:52.316Z,23.06
2022-10-11T09:28:01.941Z,22.71
2022-10-11T09:28:30.431Z,22.70
2022-10-11T09:29:13.808Z,22.68
2022-10-11T09:30:07.359Z,22.68
2022-10-11T09:31:01.356Z,22.64
2022-10-11T09:31:54.882Z,22.58
2022-10-11T09:32:48.413Z,22.55
2022-10-11T09:33:41.936Z,22.48
2022-10-11T09:34:35.460Z,22.49
2022-10-11T09:35:28.979Z,22.55
2022-10-11T09:36:22.514Z,22.56
2022-10-11T09:37:16.035Z,22.52
2022-10-11T09:38:09.560Z,22.73
2022-10-11T09:39:06.689Z,22.91
2022-10-11T09:39:56.625Z,23.03
2022-10-11T09:40:50.159Z,23.10
2022-10-11T09:41:43.678Z,23.18
2022-10-11T09:42:47.467Z,23.18
2022-10-11T09:43:40.993Z,23.22
2022-10-11T09:44:34.525Z,23.23
2022-10-11T09:45:28.078Z,23.29
2022-10-11T09:46:21.588Z,23.41
2022-10-11T09:47:15.109Z,23.41
2022-10-11T09:48:09.137Z,23.45
2022-10-11T09:49:02.674Z,23.46
2022-10-11T09:49:56.197Z,23.54
2022-10-11T09:50:49.735Z,23.46
2022-10-11T09:51:43.257Z,23.52
2022-10-11T09:52:42.915Z,23.59
2022-10-11T09:53:36.435Z,23.59
2022-10-11T09:54:29.973Z,23.59
2022-10-11T09:55:23.507Z,23.67
2022-10-11T09:56:17.054Z,23.66
2022-10-11T09:57:10.580Z,23.63
2022-10-11T09:58:04.614Z,23.70
2022-10-11T09:58:58.142Z,23.60
2022-10-11T09:59:51.663Z,23.76
2022-10-11T10:00:45.212Z,23.74
2022-10-11T10:01:38.816Z,23.70
2022-10-11T10:02:32.275Z,23.81
2022-10-11T10:03:25.802Z,23.76
2022-10-11T10:04:19.330Z,23.81
2022-10-11T10:06:43.695Z,23.89
2022-10-11T10:07:27.364Z,23.84
2022-10-11T10:08:20.892Z,23.84
2022-10-11T10:09:04.547Z,23.78
2022-10-11T10:09:58.078Z,23.89
2022-10-11T10:10:53.745Z,23.88
2022-10-11T10:11:45.133Z,23.88
2022-10-11T10:12:38.659Z,23.97
2022-10-11T10:13:32.188Z,23.89
2022-10-11T10:14:25.727Z,23.89
2022-10-11T10:15:19.256Z,23.97
2022-10-11T10:16:12.828Z,23.91
2022-10-11T10:17:06.321Z,23.96
2022-10-11T10:17:59.855Z,24.00
2022-10-11T10:18:53.384Z,24.00
2022-10-11T10:19:46.914Z,24.01
2022-10-11T10:20:40.443Z,23.98
2022-10-11T10:21:33.965Z,23.98
2022-10-11T10:22:27.489Z,23.98
2022-10-11T10:23:21.015Z,24.00
2022-10-11T10:24:14.547Z,24.00
2022-10-11T10:25:08.169Z,23.97
2022-10-11T10:26:01.603Z,23.94
2022-10-11T10:26:55.128Z,23.89
2022-10-11T10:27:48.652Z,23.92
2022-10-11T10:28:42.238Z,23.98
2022-10-11T10:29:35.710Z,24.01
2022-10-11T10:30:34.462Z,23.92
2022-10-11T10:31:22.770Z,23.94
2022-10-11T10:32:16.283Z,23.88
2022-10-11T10:33:09.819Z,23.82
2022-10-11T10:34:03.343Z,23.69
2022-10-11T10:34:56.871Z,23.63
2022-10-11T10:35:50.404Z,23.70
2022-10-11T10:36:43.922Z,23.70
2022-10-11T10:37:37.442Z,23.79
2022-10-11T10:38:30.967Z,23.79
2022-10-11T10:39:24.489Z,23.71
2022-10-11T10:40:18.040Z,23.74
2022-10-11T10:41:11.568Z,23.81
2022-10-11T10:42:05.087Z,23.81
2022-10-11T10:42:58.605Z,23.84
2022-10-11T10:43:52.139Z,23.79
2022-10-11T10:44:45.673Z,23.89
2022-10-11T10:45:39.195Z,23.71
2022-10-11T10:46:32.766Z,23.73
2022-10-11T10:47:26.273Z,23.70
2022-10-11T10:48:19.794Z,23.66
2022-10-11T10:50:06.844Z,23.71
2022-10-11T10:51:00.371Z,23.73
2022-10-11T10:51:53.904Z,23.76
2022-10-11T10:52:47.434Z,23.76
2022-10-11T10:53:40.958Z,23.79
2022-10-11T10:54:34.483Z,23.82
2022-10-11T10:55:28.014Z,23.74
2022-10-11T10:56:21.541Z,23.85
2022-10-11T10:57:15.063Z,23.88
2022-10-11T10:58:08.606Z,23.88
2022-10-11T10:59:02.157Z,23.85
2022-10-11T10:59:55.687Z,23.76
2022-10-11T11:00:49.217Z,23.70
2022-10-11T11:01:42.795Z,23.74
2022-10-11T11:02:40.585Z,23.71
2022-10-11T11:03:29.797Z,23.74
2022-10-11T11:04:23.324Z,23.81
2022-10-11T11:05:16.849Z,23.84
2022-10-11T11:06:10.445Z,23.88
2022-10-11T11:07:03.904Z,23.94
2022-10-11T11:07:57.426Z,23.89
2022-10-11T11:08:50.953Z,23.91
2022-10-11T11:09:44.481Z,24.00
2022-10-11T11:10:38.013Z,24.01
2022-10-11T11:11:31.549Z,23.97
2022-10-11T11:12:25.070Z,24.00
2022-10-11T11:13:18.610Z,23.98
2022-10-11T11:14:12.133Z,24.11
2022-10-11T11:15:05.658Z,23.97
2022-10-11T11:15:59.180Z,23.98
2022-10-11T11:16:52.801Z,23.86
2022-10-11T11:17:46.237Z,23.97
2022-10-11T11:18:39.763Z,24.01
2022-10-11T11:19:33.291Z,24.15
2022-10-11T11:20:26.819Z,24.15
2022-10-11T11:21:30.610Z,24.15
2022-10-11T11:22:24.130Z,24.23
2022-10-11T11:23:17.662Z,24.26
2022-10-11T11:24:11.188Z,24.28
2022-10-11T11:25:04.710Z,24.31
2022-10-11T11:25:58.245Z,24.33
2022-10-11T11:26:51.778Z,24.38
2022-10-11T11:27:45.322Z,24.40
2022-10-11T11:28:39.025Z,24.52
2022-10-11T11:29:22.535Z,24.62
2022-10-11T11:30:16.071Z,24.62
2022-10-11T11:31:09.592Z,24.55
2022-10-11T11:32:03.141Z,24.34
2022-10-11T11:32:56.649Z,24.25
2022-10-11T11:33:50.188Z,24.31
2022-10-11T11:34:43.717Z,24.52